Time;durP1;ratioP1;P1;durP2;ratioP2;P2;SDS_P1;SDS_P2;PMS_P1;PMS_P2;Temp;Humidity;BMP_temperature;BMP_pressure;BME280_temperature;BME280_humidity;BME280_pressure;Samples;Min_cycle;Max_cycle;Signal;HPM_P1;HPM_P2
2021/03/18 00:02:04;;;;;;;7.23;4.77;;;1.10;99.90;;;;;;5034971;28;20579;-51
2021/03/18 00:04:32;;;;;;;10.90;4.97;;;1.10;99.90;;;;;;5037143;28;20969;-50
2021/03/18 00:07:00;;;;;;;10.27;5.80;;;1.10;99.90;;;;;;5039102;28;20454;-51
2021/03/18 00:09:29;;;;;;;11.17;6.03;;;1.00;99.90;;;;;;5033682;28;20815;-50
2021/03/18 00:11:56;;;;;;;11.43;6.27;;;1.00;99.90;;;;;;5033339;28;20987;-51
2021/03/18 00:14:24;;;;;;;11.43;6.00;;;1.00;99.90;;;;;;5035836;28;20468;-50
2021/03/18 00:16:51;;;;;;;9.93;5.80;;;0.90;99.90;;;;;;5039892;28;20458;-50
2021/03/18 00:19:18;;;;;;;10.57;5.40;;;0.90;99.90;;;;;;5037993;28;20446;-50
2021/03/18 00:21:45;;;;;;;15.10;6.17;;;0.80;99.90;;;;;;5053194;28;20465;-50
2021/03/18 00:24:14;;;;;;;11.13;5.87;;;0.80;99.90;;;;;;5052366;28;20517;-50
2021/03/18 00:26:40;;;;;;;15.30;6.07;;;0.80;99.90;;;;;;5043697;28;20456;-50
2021/03/18 00:29:07;;;;;;;14.63;6.53;;;0.90;99.90;;;;;;5049964;28;20480;-50
2021/03/18 00:31:36;;;;;;;11.43;6.53;;;0.80;99.90;;;;;;5036540;28;20485;-50
2021/03/18 00:34:03;;;;;;;12.57;7.10;;;0.80;99.90;;;;;;5053065;28;20454;-50
2021/03/18 00:36:31;;;;;;;13.93;6.57;;;0.80;99.90;;;;;;5042061;28;20503;-50
2021/03/18 00:38:58;;;;;;;10.53;5.90;;;0.80;99.90;;;;;;5051172;28;20441;-51
2021/03/18 00:41:26;;;;;;;12.50;6.37;;;0.90;99.90;;;;;;5032956;28;20543;-50
2021/03/18 00:43:52;;;;;;;13.97;8.30;;;0.90;99.90;;;;;;5037190;28;20452;-49
2021/03/18 00:46:21;;;;;;;13.73;6.20;;;0.90;99.90;;;;;;5042541;28;20457;-50
2021/03/18 00:48:47;;;;;;;13.50;6.17;;;1.00;99.90;;;;;;5052160;28;20483;-51
2021/03/18 00:51:15;;;;;;;10.27;5.97;;;1.00;99.90;;;;;;5052720;28;20474;-50
2021/03/18 00:53:44;;;;;;;13.57;6.80;;;1.00;99.90;;;;;;5050355;28;20943;-51
2021/03/18 00:56:13;;;;;;;10.30;5.57;;;0.90;99.90;;;;;;5042498;28;20449;-50
2021/03/18 00:58:41;;;;;;;16.90;8.43;;;0.90;99.90;;;;;;5032160;28;20499;-51
2021/03/18 01:01:08;;;;;;;14.53;7.27;;;0.90;99.90;;;;;;5032649;28;20471;-50
2021/03/18 01:03:37;;;;;;;16.77;6.37;;;0.90;99.90;;;;;;5032969;28;20867;-50
2021/03/18 01:06:06;;;;;;;14.63;6.50;;;0.90;99.90;;;;;;5042050;28;20528;-50
2021/03/18 01:08:33;;;;;;;13.70;6.93;;;0.90;99.90;;;;;;5043958;28;20481;-50
2021/03/18 01:11:03;;;;;;;13.97;7.00;;;0.90;99.90;;;;;;5052301;28;20473;-50
2021/03/18 01:13:29;;;;;;;15.20;7.60;;;0.90;99.90;;;;;;5052323;28;20964;-50
2021/03/18 01:15:59;;;;;;;16.80;8.20;;;0.90;99.90;;;;;;5048168;28;20473;-50
2021/03/18 01:18:30;;;;;;;12.20;6.83;;;0.90;99.90;;;;;;5043076;28;20566;-51
2021/03/18 01:20:56;;;;;;;15.37;7.30;;;0.90;99.90;;;;;;5052077;28;20832;-51
2021/03/18 01:23:23;;;;;;;14.20;7.67;;;0.90;99.90;;;;;;5051992;28;20500;-50
2021/03/18 01:25:49;;;;;;;16.03;7.83;;;0.80;99.90;;;;;;5036051;28;20455;-50
2021/03/18 01:28:16;;;;;;;13.47;7.67;;;0.80;99.90;;;;;;5041443;28;20478;-50
2021/03/18 01:30:42;;;;;;;12.63;7.03;;;0.90;99.90;;;;;;5047439;28;20534;-51
2021/03/18 01:33:10;;;;;;;17.77;8.10;;;0.90;99.90;;;;;;5032888;28;20878;-51
2021/03/18 01:35:36;;;;;;;16.37;8.47;;;0.90;99.90;;;;;;5045041;28;20455;-51
2021/03/18 01:38:03;;;;;;;20.37;8.00;;;0.90;99.90;;;;;;5044167;28;20451;-51
2021/03/18 01:40:33;;;;;;;17.83;9.50;;;0.90;99.90;;;;;;5031406;28;20903;-51
2021/03/18 01:43:00;;;;;;;19.07;9.20;;;0.90;99.90;;;;;;5031895;28;20860;-51
2021/03/18 01:45:27;;;;;;;20.17;8.80;;;0.90;99.90;;;;;;5031906;28;20459;-51
2021/03/18 01:47:55;;;;;;;18.27;9.27;;;0.90;99.90;;;;;;5037574;28;20881;-51
2021/03/18 01:50:24;;;;;;;18.80;8.63;;;0.90;99.90;;;;;;5051932;28;20456;-51
2021/03/18 01:52:51;;;;;;;20.93;9.17;;;1.00;99.90;;;;;;5051681;28;20512;-50
2021/03/18 01:55:24;;;;;;;24.67;8.87;;;1.10;99.90;;;;;;5049227;28;20446;-51
2021/03/18 01:57:50;;;;;;;22.27;9.00;;;1.10;99.90;;;;;;5045904;28;20448;-51
2021/03/18 02:00:18;;;;;;;22.57;9.70;;;1.10;99.90;;;;;;5043494;28;20468;-51
2021/03/18 02:02:45;;;;;;;20.73;10.00;;;1.00;99.90;;;;;;5032882;28;20448;-51
2021/03/18 02:05:12;;;;;;;20.37;9.77;;;1.00;99.90;;;;;;5040181;28;20452;-51
2021/03/18 02:07:40;;;;;;;22.20;11.07;;;1.10;99.90;;;;;;5047790;28;20505;-51
2021/03/18 02:10:08;;;;;;;24.47;11.20;;;1.00;99.90;;;;;;5030326;28;20988;-52
2021/03/18 02:12:35;;;;;;;21.20;10.40;;;1.00;99.90;;;;;;5031363;28;20473;-51
2021/03/18 02:15:03;;;;;;;23.97;11.63;;;1.00;99.90;;;;;;5037856;28;20449;-50
2021/03/18 02:17:37;;;;;;;20.53;9.77;;;1.00;99.90;;;;;;5050544;28;20450;-51
2021/03/18 02:20:39;;;;;;;20.03;9.90;;;1.00;99.90;;;;;;5051034;28;20454;-51
2021/03/18 02:23:39;;;;;;;20.20;10.13;;;1.00;99.90;;;;;;5050974;28;20504;-51
2021/03/18 02:26:20;;;;;;;28.60;11.27;;;1.00;99.90;;;;;;5009229;28;20451;-51
2021/03/18 02:29:06;;;;;;;20.37;9.67;;;1.10;99.90;;;;;;5043266;28;20482;-51
2021/03/18 02:31:54;;;;;;;22.20;10.33;;;1.10;99.90;;;;;;5049025;28;20465;-51
2021/03/18 02:34:58;;;;;;;24.97;11.07;;;1.10;99.90;;;;;;5044297;28;20453;-51
2021/03/18 02:37:29;;;;;;;21.17;10.63;;;1.10;99.90;;;;;;5033916;28;20449;-50
2021/03/18 02:40:01;;;;;;;22.30;11.63;;;1.00;99.90;;;;;;5039598;28;20447;-51
2021/03/18 02:42:32;;;;;;;26.30;12.40;;;1.10;99.90;;;;;;5036510;28;20483;-50
2021/03/18 02:45:02;;;;;;;22.60;10.80;;;1.00;99.90;;;;;;5044567;28;20452;-50
2021/03/18 02:47:32;;;;;;;23.30;11.43;;;1.10;99.90;;;;;;5040954;28;20455;-52
2021/03/18 02:50:00;;;;;;;20.40;10.60;;;1.00;99.90;;;;;;5050718;28;20536;-51
2021/03/18 02:52:29;;;;;;;21.10;10.90;;;1.00;99.90;;;;;;5039809;28;20901;-50
2021/03/18 02:54:58;;;;;;;23.10;11.33;;;1.00;99.90;;;;;;5038507;28;20800;-49
2021/03/18 02:57:27;;;;;;;20.50;11.50;;;1.00;99.90;;;;;;5033265;28;20446;-51
2021/03/18 02:59:55;;;;;;;27.83;11.57;;;1.00;99.90;;;;;;5030726;28;20456;-50
2021/03/18 03:02:26;;;;;;;23.00;11.30;;;1.00;99.90;;;;;;5030688;28;20471;-50
2021/03/18 03:08:17;;;;;;;24.90;10.90;;;1.10;99.90;;;;;;5030003;28;20522;-51
2021/03/18 03:10:45;;;;;;;26.87;12.20;;;1.10;99.90;;;;;;5029788;28;20479;-50
2021/03/18 03:13:13;;;;;;;21.60;9.80;;;1.10;99.90;;;;;;5030596;28;20443;-50
2021/03/18 03:15:40;;;;;;;21.87;10.80;;;1.10;99.90;;;;;;5030332;28;21028;-51
2021/03/18 03:18:09;;;;;;;25.03;11.43;;;1.20;99.90;;;;;;5030275;28;20689;-51
2021/03/18 03:20:36;;;;;;;23.33;11.23;;;1.10;99.90;;;;;;5030455;28;21008;-52
2021/03/18 03:23:05;;;;;;;23.30;11.77;;;1.10;99.90;;;;;;5034397;28;20461;-51
2021/03/18 03:25:33;;;;;;;28.00;13.20;;;1.10;99.90;;;;;;5034352;28;20455;-51
2021/03/18 03:28:00;;;;;;;21.23;11.03;;;1.20;99.90;;;;;;5033772;28;20447;-51
2021/03/18 03:30:27;;;;;;;28.37;13.73;;;1.30;99.90;;;;;;5038548;28;20850;-52
2021/03/18 03:32:54;;;;;;;23.87;11.33;;;1.30;99.90;;;;;;5054457;28;20458;-51
2021/03/18 03:35:21;;;;;;;22.07;10.83;;;1.30;99.90;;;;;;5054287;28;20481;-51
2021/03/18 03:37:48;;;;;;;24.93;11.50;;;1.20;99.90;;;;;;5050648;28;20877;-51
2021/03/18 03:40:18;;;;;;;25.07;11.93;;;1.20;99.90;;;;;;5053909;28;20453;-51
2021/03/18 03:42:45;;;;;;;26.83;12.80;;;1.20;99.90;;;;;;5054372;28;20507;-51
2021/03/18 03:45:16;;;;;;;26.70;11.83;;;1.20;99.90;;;;;;5053959;28;20450;-50
2021/03/18 03:47:43;;;;;;;24.60;11.30;;;1.20;99.90;;;;;;5047661;28;20873;-51
2021/03/18 03:50:12;;;;;;;27.40;13.13;;;1.30;99.90;;;;;;5033932;28;20497;-50
2021/03/18 03:52:44;;;;;;;23.03;11.80;;;1.20;99.90;;;;;;5034084;28;20466;-51
2021/03/18 03:55:20;;;;;;;32.47;11.70;;;1.20;99.90;;;;;;5034288;28;20455;-51
2021/03/18 03:57:55;;;;;;;28.53;12.80;;;1.10;99.90;;;;;;5037211;28;20451;-50
2021/03/18 04:00:23;;;;;;;24.00;12.47;;;1.10;99.90;;;;;;5033958;28;21086;-51
2021/03/18 04:02:53;;;;;;;22.70;11.53;;;1.20;99.90;;;;;;5033951;28;20451;-50
2021/03/18 04:05:20;;;;;;;22.67;11.03;;;1.10;99.90;;;;;;5033576;28;20461;-51
2021/03/18 04:07:48;;;;;;;25.47;12.53;;;1.10;99.90;;;;;;5036785;28;20506;-50
2021/03/18 04:10:15;;;;;;;28.53;12.53;;;1.00;99.90;;;;;;5034477;28;20492;-50
2021/03/18 04:12:45;;;;;;;23.53;11.50;;;1.00;99.90;;;;;;5035099;28;20823;-51
2021/03/18 04:15:16;;;;;;;24.00;11.80;;;1.00;99.90;;;;;;5034953;28;20458;-51
2021/03/18 04:17:46;;;;;;;27.60;12.47;;;1.00;99.90;;;;;;5037752;28;20458;-50
2021/03/18 04:20:15;;;;;;;23.40;11.87;;;1.00;99.90;;;;;;5034430;28;20953;-50
2021/03/18 04:22:45;;;;;;;25.53;12.07;;;0.90;99.90;;;;;;5034523;28;20485;-50
2021/03/18 04:25:14;;;;;;;25.50;12.03;;;0.90;99.90;;;;;;5033256;28;20453;-51
2021/03/18 04:27:41;;;;;;;25.47;12.93;;;0.90;99.90;;;;;;5036115;28;20451;-50
2021/03/18 04:30:10;;;;;;;34.33;13.60;;;0.90;99.90;;;;;;5033143;28;20494;-50
2021/03/18 04:32:39;;;;;;;26.63;13.30;;;0.90;99.90;;;;;;5032407;28;20438;-51
2021/03/18 04:35:07;;;;;;;26.57;11.77;;;0.90;99.90;;;;;;5033105;28;20462;-50
2021/03/18 04:37:35;;;;;;;27.27;12.57;;;0.90;99.90;;;;;;5036334;28;20450;-50
2021/03/18 04:40:03;;;;;;;31.53;12.77;;;0.80;99.90;;;;;;5033184;28;20819;-50
2021/03/18 04:42:30;;;;;;;25.10;12.63;;;0.90;99.90;;;;;;5072514;22;20497;-47
2021/03/18 04:44:57;;;;;;;26.40;12.13;;;0.90;99.90;;;;;;5052118;28;20580;-48
2021/03/18 04:47:24;;;;;;;25.17;12.53;;;0.90;99.90;;;;;;5049593;28;20446;-47
2021/03/18 04:49:53;;;;;;;24.97;11.67;;;0.80;99.90;;;;;;5052290;28;20489;-47
2021/03/18 04:52:20;;;;;;;31.40;11.73;;;0.80;99.90;;;;;;5041797;28;20485;-47
2021/03/18 04:54:48;;;;;;;24.33;12.10;;;0.80;99.90;;;;;;5032901;28;20448;-47
2021/03/18 04:57:18;;;;;;;24.20;11.60;;;0.80;99.90;;;;;;5031648;28;20454;-47
2021/03/18 04:59:47;;;;;;;25.67;12.07;;;0.80;99.90;;;;;;5032932;28;20818;-47
2021/03/18 05:02:14;;;;;;;20.60;10.40;;;0.80;99.90;;;;;;5032215;28;20473;-47
2021/03/18 05:04:42;;;;;;;28.80;12.77;;;0.80;99.90;;;;;;5031967;28;20465;-47
2021/03/18 05:07:09;;;;;;;27.13;11.97;;;0.80;99.90;;;;;;5035197;28;20456;-47
2021/03/18 05:09:36;;;;;;;28.60;13.10;;;0.80;99.90;;;;;;5032384;28;20483;-47
2021/03/18 05:12:03;;;;;;;26.30;11.53;;;0.80;99.90;;;;;;5031492;28;20466;-47
2021/03/18 05:14:33;;;;;;;26.43;11.50;;;0.80;99.90;;;;;;5032798;28;20985;-47
2021/03/18 05:17:01;;;;;;;25.47;11.47;;;0.80;99.90;;;;;;5034094;28;22229;-47
2021/03/18 05:19:30;;;;;;;27.50;12.37;;;0.80;99.90;;;;;;5032461;28;20451;-47
2021/03/18 05:21:57;;;;;;;27.27;12.53;;;0.80;99.90;;;;;;5032350;28;20482;-47
2021/03/18 05:24:25;;;;;;;28.17;13.90;;;0.90;99.90;;;;;;5032200;28;20449;-47
2021/03/18 05:26:51;;;;;;;28.90;11.93;;;0.80;99.90;;;;;;5031941;28;20456;-47
2021/03/18 05:29:18;;;;;;;23.47;11.53;;;0.80;99.90;;;;;;5031412;28;20483;-48
2021/03/18 05:31:46;;;;;;;27.20;11.93;;;0.80;99.90;;;;;;5031813;28;20474;-48
2021/03/18 05:34:13;;;;;;;26.00;13.00;;;0.80;99.90;;;;;;5012759;28;21178;-47
2021/03/18 05:36:40;;;;;;;26.07;12.07;;;0.90;99.90;;;;;;5042802;28;20456;-47
2021/03/18 05:39:07;;;;;;;23.43;11.63;;;0.90;99.90;;;;;;5032252;28;20534;-47
2021/03/18 05:41:34;;;;;;;24.77;12.00;;;1.00;99.90;;;;;;5031835;28;20480;-47
2021/03/18 05:44:01;;;;;;;24.60;12.00;;;1.00;99.90;;;;;;5031843;28;20456;-47
2021/03/18 05:46:28;;;;;;;25.07;11.53;;;1.00;99.90;;;;;;5042336;28;20872;-47
2021/03/18 05:48:57;;;;;;;24.23;12.03;;;1.00;99.90;;;;;;5031770;28;20486;-47
2021/03/18 05:51:23;;;;;;;29.13;15.67;;;1.20;99.90;;;;;;5031587;28;20479;-48
2021/03/18 05:53:51;;;;;;;33.93;15.17;;;1.30;99.90;;;;;;5046257;28;20455;-47
2021/03/18 05:56:20;;;;;;;26.70;11.97;;;1.40;99.90;;;;;;5046328;28;20847;-47
2021/03/18 05:58:48;;;;;;;24.53;13.03;;;1.40;99.90;;;;;;5051039;28;20963;-47
2021/03/18 06:01:15;;;;;;;24.83;12.17;;;1.40;99.90;;;;;;5034207;28;20979;-47
2021/03/18 06:03:42;;;;;;;27.50;13.40;;;1.40;99.90;;;;;;5031433;28;20841;-47
2021/03/18 06:06:09;;;;;;;28.50;11.87;;;1.30;99.90;;;;;;5033516;28;20462;-47
2021/03/18 06:08:37;;;;;;;27.10;12.03;;;1.20;99.90;;;;;;5013186;28;20486;-47
2021/03/18 06:11:05;;;;;;;26.10;12.80;;;1.10;99.90;;;;;;5036612;28;20471;-47
2021/03/18 06:13:31;;;;;;;32.10;14.17;;;1.00;99.90;;;;;;5031277;28;20486;-47
2021/03/18 06:15:59;;;;;;;25.73;12.00;;;1.00;99.90;;;;;;5029346;28;20468;-47
2021/03/18 06:18:25;;;;;;;27.63;13.00;;;1.00;99.90;;;;;;5031275;28;20451;-47
2021/03/18 06:20:55;;;;;;;25.00;12.00;;;1.10;99.90;;;;;;5030734;28;20999;-47
2021/03/18 06:23:22;;;;;;;23.97;11.67;;;1.30;99.90;;;;;;5030930;28;20443;-47
2021/03/18 06:25:50;;;;;;;26.47;11.97;;;1.20;99.90;;;;;;5030797;28;20447;-47
2021/03/18 06:28:19;;;;;;;24.47;12.60;;;1.30;99.90;;;;;;5048817;28;20455;-47
2021/03/18 06:30:58;;;;;;;33.37;14.07;;;1.50;99.90;;;;;;5050830;28;20475;-47
2021/03/18 06:33:28;;;;;;;23.77;12.00;;;1.60;99.90;;;;;;5051170;28;20450;-47
2021/03/18 06:35:55;;;;;;;25.40;12.13;;;1.60;99.90;;;;;;5050793;28;20451;-47
2021/03/18 06:38:30;;;;;;;25.50;11.90;;;1.60;99.90;;;;;;5031729;28;20820;-47
2021/03/18 06:40:58;;;;;;;24.90;12.10;;;1.60;99.90;;;;;;5030113;28;20490;-46
2021/03/18 06:43:41;;;;;;;22.70;11.20;;;1.70;99.90;;;;;;5043880;28;20536;-47
2021/03/18 06:46:17;;;;;;;27.03;12.17;;;1.80;99.90;;;;;;5048682;28;20451;-47
2021/03/18 06:48:43;;;;;;;24.07;12.47;;;2.00;99.90;;;;;;5010898;28;21069;-47
2021/03/18 06:51:17;;;;;;;21.23;10.80;;;2.10;99.90;;;;;;5019614;28;20472;-47
2021/03/18 06:53:44;;;;;;;25.47;12.13;;;2.70;99.90;;;;;;5030370;28;20448;-47
2021/03/18 06:56:28;;;;;;;20.30;10.73;;;2.90;99.90;;;;;;5029588;28;20968;-47
2021/03/18 06:58:55;;;;;;;21.50;11.00;;;3.20;99.90;;;;;;5011183;28;20472;-47
2021/03/18 07:01:30;;;;;;;22.97;10.37;;;3.70;99.90;;;;;;5023576;28;20487;-48
2021/03/18 07:04:04;;;;;;;19.53;10.00;;;4.40;99.90;;;;;;5028230;28;21187;-47
2021/03/18 07:06:32;;;;;;;22.20;11.50;;;4.60;99.90;;;;;;5025954;28;20953;-47
2021/03/18 07:09:08;;;;;;;15.87;9.03;;;4.50;99.90;;;;;;5029614;28;20480;-48
2021/03/18 07:11:43;;;;;;;21.33;10.30;;;5.00;99.90;;;;;;5030853;28;20559;-48
2021/03/18 07:14:10;;;;;;;23.17;10.77;;;5.30;99.90;;;;;;5029205;28;20497;-47
2021/03/18 07:16:45;;;;;;;21.30;10.10;;;4.60;99.90;;;;;;5030084;28;20505;-47
2021/03/18 07:19:21;;;;;;;22.20;9.77;;;4.00;99.90;;;;;;5030568;28;20455;-47
2021/03/18 07:21:48;;;;;;;20.03;10.60;;;3.70;99.90;;;;;;5030595;28;20522;-47
2021/03/18 07:24:30;;;;;;;23.30;10.73;;;3.40;99.90;;;;;;5030636;28;20468;-47
2021/03/18 07:26:58;;;;;;;23.17;10.70;;;2.90;99.90;;;;;;5010413;28;20536;-47
2021/03/18 07:29:27;;;;;;;21.57;10.10;;;2.80;99.90;;;;;;5031581;28;20511;-47
2021/03/18 07:31:56;;;;;;;18.80;9.77;;;3.00;99.90;;;;;;5031000;28;20886;-47
2021/03/18 07:34:25;;;;;;;17.70;9.67;;;3.00;99.90;;;;;;5031872;28;20468;-47
2021/03/18 07:36:56;;;;;;;22.57;10.77;;;3.10;99.90;;;;;;5047859;28;20459;-47
2021/03/18 07:39:23;;;;;;;21.43;10.73;;;2.70;99.90;;;;;;5019663;28;20451;-47
2021/03/18 07:41:52;;;;;;;23.13;11.00;;;2.40;99.90;;;;;;5030111;28;20542;-47
2021/03/18 07:44:19;;;;;;;24.90;10.70;;;2.30;99.90;;;;;;5030153;28;20972;-47
2021/03/18 07:46:47;;;;;;;25.40;12.30;;;2.30;99.90;;;;;;5029927;28;20462;-47
2021/03/18 07:49:17;;;;;;;23.90;10.27;;;2.10;99.90;;;;;;5029961;28;20483;-47
2021/03/18 07:51:47;;;;;;;24.70;11.27;;;1.90;99.90;;;;;;5030000;28;20476;-46
2021/03/18 07:54:17;;;;;;;24.10;11.37;;;2.00;99.90;;;;;;5030055;28;20467;-47
2021/03/18 07:56:48;;;;;;;27.40;12.03;;;1.80;99.90;;;;;;5036244;28;20540;-47
2021/03/18 07:59:15;;;;;;;23.10;11.13;;;1.80;99.90;;;;;;5029984;28;20451;-47
2021/03/18 08:01:42;;;;;;;21.47;11.23;;;1.80;99.90;;;;;;5029947;28;20472;-47
2021/03/18 08:04:12;;;;;;;21.10;11.00;;;1.70;99.90;;;;;;5025907;28;20474;-47
2021/03/18 08:06:50;;;;;;;25.90;11.17;;;1.70;99.90;;;;;;5048913;28;20486;-47
2021/03/18 08:09:38;;;;;;;24.60;11.60;;;1.60;99.90;;;;;;5040062;28;20522;-47
2021/03/18 08:12:06;;;;;;;28.00;12.13;;;1.60;99.90;;;;;;5033384;28;20486;-46
2021/03/18 08:14:35;;;;;;;24.27;11.17;;;1.60;99.90;;;;;;5033479;28;20873;-46
2021/03/18 08:17:02;;;;;;;23.00;11.23;;;1.70;99.90;;;;;;5033245;28;20804;-47
2021/03/18 08:19:40;;;;;;;21.40;10.30;;;1.70;99.90;;;;;;5033387;28;20451;-47
2021/03/18 08:22:27;;;;;;;24.03;9.50;;;1.70;99.90;;;;;;5033280;28;21004;-47
2021/03/18 08:24:54;;;;;;;21.37;10.03;;;1.60;99.90;;;;;;5033316;28;20474;-47
2021/03/18 08:27:29;;;;;;;23.33;9.67;;;1.60;99.90;;;;;;5032485;28;20452;-46
2021/03/18 08:29:55;;;;;;;21.40;8.57;;;1.50;99.90;;;;;;5030306;28;20483;-47
2021/03/18 08:32:28;;;;;;;19.93;9.17;;;1.60;99.90;;;;;;5033267;28;20467;-46
2021/03/18 08:34:56;;;;;;;18.97;8.70;;;1.70;99.90;;;;;;5033028;28;20451;-47
2021/03/18 08:37:35;;;;;;;12.40;6.90;;;1.90;99.90;;;;;;5033036;28;20452;-47
2021/03/18 08:40:04;;;;;;;11.67;6.53;;;2.10;99.90;;;;;;5033047;28;20444;-47
2021/03/18 08:42:41;;;;;;;10.67;6.23;;;2.10;99.90;;;;;;5032657;28;20487;-47
2021/03/18 08:45:34;;;;;;;11.30;5.70;;;2.10;99.90;;;;;;5032697;28;20475;-47
2021/03/18 08:48:13;;;;;;;11.30;5.40;;;2.20;99.90;;;;;;5026883;28;20836;-47
2021/03/18 08:51:04;;;;;;;10.80;6.80;;;2.30;99.90;;;;;;5034249;28;20947;-47
2021/03/18 08:53:36;;;;;;;14.50;6.30;;;2.40;99.90;;;;;;5023491;28;20229;-47
2021/03/18 08:56:04;;;;;;;10.83;5.63;;;2.50;99.90;;;;;;5025858;28;20475;-47
2021/03/18 08:58:48;;;;;;;9.80;5.63;;;2.20;99.90;;;;;;5021491;28;20841;-47
2021/03/18 09:01:16;;;;;;;10.97;5.73;;;2.50;99.90;;;;;;5022976;28;20628;-46
2021/03/18 09:03:43;;;;;;;8.87;5.03;;;2.50;99.90;;;;;;5023161;28;20467;-46
2021/03/18 09:06:10;;;;;;;8.60;4.93;;;2.10;99.90;;;;;;5025521;28;20972;-46
2021/03/18 09:08:37;;;;;;;8.27;5.27;;;2.20;99.90;;;;;;5023772;28;21035;-47
2021/03/18 09:11:04;;;;;;;10.27;5.47;;;2.50;99.90;;;;;;5023535;28;20506;-46
2021/03/18 09:13:35;;;;;;;12.20;5.93;;;2.50;99.90;;;;;;5022210;28;20460;-46
2021/03/18 09:16:02;;;;;;;16.17;8.00;;;2.60;99.90;;;;;;5021529;28;20464;-46
2021/03/18 09:18:32;;;;;;;17.77;8.80;;;2.90;99.90;;;;;;5023916;28;20544;-47
2021/03/18 09:21:00;;;;;;;16.40;8.20;;;3.10;99.90;;;;;;5023373;28;20491;-46
2021/03/18 09:23:29;;;;;;;16.17;8.20;;;3.40;99.90;;;;;;5025324;28;20986;-47
2021/03/18 09:25:59;;;;;;;17.23;8.67;;;3.50;99.90;;;;;;5023359;28;20837;-47
2021/03/18 09:28:31;;;;;;;20.90;8.83;;;3.70;99.90;;;;;;5031412;28;20482;-47
2021/03/18 09:30:57;;;;;;;15.83;8.10;;;3.70;99.90;;;;;;5036365;28;20456;-47
2021/03/18 09:33:26;;;;;;;15.37;8.73;;;3.90;99.90;;;;;;5026124;28;20555;-47
2021/03/18 09:35:54;;;;;;;15.67;7.83;;;4.20;99.90;;;;;;5033738;28;20453;-47
2021/03/18 09:38:24;;;;;;;15.63;8.63;;;4.30;99.90;;;;;;5022951;28;21087;-48
2021/03/18 09:40:51;;;;;;;19.23;8.87;;;4.40;99.90;;;;;;5016651;28;20993;-47
2021/03/18 09:43:21;;;;;;;16.80;8.30;;;4.20;99.90;;;;;;5006468;28;20466;-47
2021/03/18 09:45:54;;;;;;;19.97;9.57;;;3.60;99.90;;;;;;5007829;28;20529;-47
2021/03/18 09:48:27;;;;;;;16.33;8.83;;;3.40;99.90;;;;;;5021222;28;20482;-47
2021/03/18 09:50:55;;;;;;;21.00;9.13;;;3.40;99.90;;;;;;5022190;28;20497;-47
2021/03/18 09:53:23;;;;;;;18.40;9.13;;;3.40;99.90;;;;;;5029471;28;20530;-48
2021/03/18 09:55:49;;;;;;;18.87;8.97;;;3.20;99.90;;;;;;5027704;28;20559;-46
2021/03/18 09:58:18;;;;;;;20.77;10.40;;;3.20;99.90;;;;;;5021999;28;20459;-47
2021/03/18 10:00:46;;;;;;;19.73;9.10;;;3.10;99.90;;;;;;5022899;28;20511;-48
2021/03/18 10:03:12;;;;;;;20.33;10.17;;;3.00;99.90;;;;;;5019121;28;20974;-47
2021/03/18 10:05:39;;;;;;;24.13;10.10;;;2.90;99.90;;;;;;5019583;28;20464;-48
2021/03/18 10:08:06;;;;;;;19.30;9.47;;;2.90;99.90;;;;;;5024354;28;20603;-49
2021/03/18 10:10:34;;;;;;;19.83;9.80;;;2.80;99.90;;;;;;5025937;28;21222;-47
2021/03/18 10:13:01;;;;;;;20.30;9.20;;;2.80;99.90;;;;;;5025381;28;20973;-47
2021/03/18 10:15:30;;;;;;;19.07;9.10;;;2.90;99.90;;;;;;5030186;28;20460;-47
2021/03/18 10:17:57;;;;;;;19.00;9.70;;;3.10;99.90;;;;;;5034716;28;20555;-48
2021/03/18 10:20:28;;;;;;;18.40;8.93;;;2.90;99.90;;;;;;5029684;28;20468;-47
2021/03/18 10:23:01;;;;;;;19.67;9.13;;;2.80;99.90;;;;;;5030580;28;20455;-48
2021/03/18 10:25:31;;;;;;;20.77;9.37;;;2.90;99.90;;;;;;5028856;28;20505;-48
2021/03/18 10:28:04;;;;;;;20.27;8.47;;;3.00;99.90;;;;;;5023325;28;20469;-47
2021/03/18 10:30:32;;;;;;;16.57;8.80;;;3.10;99.90;;;;;;5028616;28;20480;-47
2021/03/18 10:33:12;;;;;;;17.20;8.80;;;3.40;99.90;;;;;;5029811;28;20468;-47
2021/03/18 10:35:41;;;;;;;16.43;7.90;;;3.70;99.90;;;;;;5028164;28;20463;-47
2021/03/18 10:38:10;;;;;;;19.97;8.93;;;3.80;99.90;;;;;;5030385;28;20476;-47
2021/03/18 10:40:42;;;;;;;18.23;8.20;;;3.70;99.90;;;;;;5036120;28;20452;-47
2021/03/18 10:43:21;;;;;;;15.47;7.67;;;3.70;99.90;;;;;;5051406;22;20501;-49
2021/03/18 10:45:50;;;;;;;13.57;6.83;;;3.40;99.90;;;;;;5028108;28;20447;-50
2021/03/18 10:48:22;;;;;;;19.50;7.80;;;3.70;99.90;;;;;;5025919;28;20453;-49
2021/03/18 10:50:50;;;;;;;19.80;7.97;;;3.80;99.90;;;;;;5027954;28;20909;-49
2021/03/18 10:53:17;;;;;;;16.17;8.17;;;3.90;99.90;;;;;;5024522;28;20476;-49
2021/03/18 10:55:50;;;;;;;15.53;8.70;;;4.00;99.90;;;;;;5030155;28;20452;-49
2021/03/18 10:58:19;;;;;;;16.30;8.17;;;3.90;99.90;;;;;;5029584;28;20467;-49
2021/03/18 11:00:46;;;;;;;15.80;7.97;;;3.90;99.90;;;;;;5025087;28;20950;-49
2021/03/18 11:03:14;;;;;;;18.40;8.73;;;4.10;99.90;;;;;;5021708;28;20473;-49
2021/03/18 11:05:46;;;;;;;18.00;8.27;;;4.20;99.90;;;;;;5010374;28;20463;-48
2021/03/18 11:08:13;;;;;;;17.33;8.40;;;4.40;99.90;;;;;;5010556;28;20533;-49
2021/03/18 11:10:44;;;;;;;13.17;8.07;;;4.00;99.90;;;;;;5011445;28;20508;-49
2021/03/18 11:13:14;;;;;;;15.67;8.43;;;4.20;99.90;;;;;;5010698;28;20461;-49
2021/03/18 11:15:59;;;;;;;18.60;8.83;;;4.40;99.90;;;;;;5010337;28;20887;-49
2021/03/18 11:18:33;;;;;;;20.90;9.27;;;4.30;99.90;;;;;;5011708;28;20837;-49
2021/03/18 11:21:01;;;;;;;18.03;9.37;;;4.20;99.90;;;;;;5009937;28;20946;-49
2021/03/18 11:23:30;;;;;;;16.73;9.67;;;4.40;99.90;;;;;;5009658;28;20528;-48
2021/03/18 11:25:58;;;;;;;22.70;10.90;;;4.60;99.90;;;;;;5010339;28;20449;-49
2021/03/18 11:28:25;;;;;;;16.00;9.00;;;4.70;99.90;;;;;;5010021;28;20449;-49
2021/03/18 11:30:52;;;;;;;18.60;9.63;;;4.80;99.90;;;;;;5010383;28;20481;-49
2021/03/18 11:33:21;;;;;;;20.57;9.57;;;4.60;99.90;;;;;;5050905;28;20881;-48
2021/03/18 11:35:51;;;;;;;16.13;8.43;;;4.60;99.90;;;;;;5050232;28;20447;-49
2021/03/18 11:38:18;;;;;;;14.60;8.20;;;4.70;99.90;;;;;;5050382;28;20452;-49
2021/03/18 11:40:46;;;;;;;18.13;8.83;;;5.00;99.90;;;;;;5045569;28;20455;-49
2021/03/18 11:43:13;;;;;;;15.40;8.67;;;5.00;99.90;;;;;;5032384;28;20864;-48
2021/03/18 11:45:40;;;;;;;17.57;9.47;;;5.20;99.90;;;;;;5034036;28;20452;-49
2021/03/18 11:48:09;;;;;;;16.93;9.23;;;5.70;99.90;;;;;;5033648;28;20448;-48
2021/03/18 11:50:36;;;;;;;14.83;8.33;;;5.90;99.90;;;;;;5021018;28;20485;-49
2021/03/18 11:53:04;;;;;;;15.37;9.10;;;5.80;99.90;;;;;;5013782;28;20476;-50
2021/03/18 11:55:31;;;;;;;19.73;9.63;;;6.00;99.90;;;;;;5013720;28;20881;-49
2021/03/18 11:57:57;;;;;;;16.50;7.93;;;6.00;99.90;;;;;;5013918;28;20456;-49
2021/03/18 12:00:26;;;;;;;13.83;7.70;;;6.10;99.90;;;;;;5016097;28;20468;-49
2021/03/18 12:02:53;;;;;;;16.23;8.10;;;5.70;99.90;;;;;;5013808;28;20484;-49
2021/03/18 12:05:20;;;;;;;15.67;8.43;;;5.30;99.90;;;;;;5013628;28;20456;-50
2021/03/18 12:07:47;;;;;;;15.00;9.03;;;5.20;99.90;;;;;;5013866;28;20449;-50
2021/03/18 12:10:15;;;;;;;13.27;7.70;;;5.30;99.90;;;;;;5022609;28;20542;-49
2021/03/18 12:12:42;;;;;;;13.97;7.70;;;5.00;99.90;;;;;;5033289;28;20483;-49
2021/03/18 12:15:10;;;;;;;14.00;8.40;;;4.80;99.90;;;;;;5032918;28;20461;-50
2021/03/18 12:17:37;;;;;;;15.60;8.40;;;4.80;99.90;;;;;;5033421;28;20514;-49
2021/03/18 12:20:05;;;;;;;14.03;7.67;;;4.40;99.90;;;;;;5025201;28;20828;-49
2021/03/18 12:22:32;;;;;;;16.20;8.10;;;4.00;99.90;;;;;;5013237;28;20961;-49
2021/03/18 12:24:58;;;;;;;16.60;9.13;;;4.10;99.90;;;;;;5013041;28;20471;-50
2021/03/18 12:27:26;;;;;;;16.37;8.80;;;4.10;99.90;;;;;;5024168;28;20472;-50
2021/03/18 12:29:53;;;;;;;15.40;8.47;;;4.20;99.90;;;;;;5013170;28;20489;-50
2021/03/18 12:32:20;;;;;;;15.67;7.73;;;4.60;99.90;;;;;;5028113;28;20464;-49
2021/03/18 12:34:46;;;;;;;16.90;7.80;;;4.70;99.90;;;;;;5032874;28;21132;-50
2021/03/18 12:37:14;;;;;;;13.13;7.17;;;4.60;99.90;;;;;;5032958;28;20448;-49
2021/03/18 12:39:41;;;;;;;15.83;7.43;;;4.50;99.90;;;;;;5032925;28;20455;-49
2021/03/18 12:42:09;;;;;;;14.50;7.37;;;4.50;99.90;;;;;;5014519;28;21037;-50
2021/03/18 12:44:36;;;;;;;14.07;6.93;;;4.70;99.90;;;;;;5028542;28;21020;-49
2021/03/18 12:47:02;;;;;;;14.07;7.63;;;4.90;99.90;;;;;;5032838;28;20452;-48
2021/03/18 12:49:29;;;;;;;14.70;8.00;;;5.20;99.90;;;;;;5032821;28;21013;-49
2021/03/18 12:51:56;;;;;;;13.40;7.73;;;4.80;99.90;;;;;;5027505;28;20496;-49
2021/03/18 12:54:22;;;;;;;13.93;7.77;;;5.00;99.90;;;;;;5024185;28;20953;-49
2021/03/18 12:56:49;;;;;;;15.50;7.50;;;5.00;99.90;;;;;;5032187;28;20453;-49
2021/03/18 12:59:16;;;;;;;13.07;7.40;;;5.10;99.90;;;;;;5013236;28;20457;-49